createdAt,value
2018-08-16T00:00:01.900Z,4.40
2018-08-16T00:01:06.238Z,4.75
2018-08-16T00:02:09.647Z,4.10
2018-08-16T00:03:13.041Z,4.08
2018-08-16T00:04:16.427Z,4.40
2018-08-16T00:05:21.014Z,4.25
2018-08-16T00:06:25.132Z,4.30
2018-08-16T00:07:28.543Z,4.30
2018-08-16T00:08:31.931Z,4.12
2018-08-16T00:09:35.316Z,4.40
2018-08-16T00:10:40.200Z,4.25
2018-08-16T00:11:43.615Z,4.10
2018-08-16T00:12:48.231Z,4.17
2018-08-16T00:13:51.612Z,4.75
2018-08-16T00:14:54.999Z,4.25
2018-08-16T00:15:59.504Z,4.00
2018-08-16T00:17:02.920Z,4.85
2018-08-16T00:18:06.304Z,4.50
2018-08-16T00:19:09.679Z,4.05
2018-08-16T00:20:13.973Z,4.20
2018-08-16T00:21:17.865Z,4.45
2018-08-16T00:22:21.259Z,4.17
2018-08-16T00:23:24.637Z,4.15
2018-08-16T00:24:28.298Z,4.47
2018-08-16T00:25:32.700Z,4.78
2018-08-16T00:26:36.160Z,4.05
2018-08-16T00:27:39.563Z,4.05
2018-08-16T00:28:42.951Z,4.33
2018-08-16T00:29:46.336Z,4.20
2018-08-16T00:30:51.275Z,4.55
2018-08-16T00:31:54.719Z,4.08
2018-08-16T00:32:58.223Z,4.50
2018-08-16T00:34:01.608Z,4.37
2018-08-16T00:35:06.330Z,4.60
2018-08-16T00:36:10.704Z,4.45
2018-08-16T00:37:14.152Z,4.37
2018-08-16T00:38:17.567Z,4.42
2018-08-16T00:39:20.963Z,4.25
2018-08-16T00:40:25.412Z,4.33
2018-08-16T00:41:29.847Z,4.42
2018-08-16T00:42:34.661Z,4.28
2018-08-16T00:43:38.040Z,4.50
2018-08-16T00:44:41.424Z,4.67
2018-08-16T00:45:45.948Z,4.85
2018-08-16T00:46:49.351Z,5.03
2018-08-16T00:47:59.503Z,4.80
2018-08-16T00:49:02.887Z,5.10
2018-08-16T00:50:09.384Z,4.62
2018-08-16T00:51:14.136Z,4.72
2018-08-16T00:52:17.600Z,4.10
2018-08-16T00:53:20.995Z,4.30
2018-08-16T00:54:24.371Z,4.20
2018-08-16T00:55:29.912Z,4.17
2018-08-16T00:56:33.375Z,4.12
2018-08-16T00:57:37.163Z,4.10
2018-08-16T00:58:40.567Z,3.85
2018-08-16T00:59:43.972Z,4.30
2018-08-16T01:00:48.253Z,4.62
2018-08-16T01:01:51.667Z,4.10
2018-08-16T01:02:55.047Z,4.45
2018-08-16T01:03:58.449Z,4.17
2018-08-16T01:05:01.839Z,4.60
2018-08-16T01:06:06.303Z,4.12
2018-08-16T01:07:09.763Z,4.65
2018-08-16T01:08:13.156Z,4.25
2018-08-16T01:09:16.563Z,3.70
2018-08-16T01:10:21.065Z,3.90
2018-08-16T01:11:24.736Z,3.42
2018-08-16T01:12:28.452Z,3.80
2018-08-16T01:13:31.856Z,4.20
2018-08-16T01:14:35.311Z,4.45
2018-08-16T01:15:40.796Z,4.30
2018-08-16T01:16:44.207Z,4.10
2018-08-16T01:17:47.595Z,4.15
2018-08-16T01:18:51.025Z,3.90
2018-08-16T01:19:54.390Z,4.10
2018-08-16T01:20:58.921Z,4.20
2018-08-16T01:22:02.351Z,3.62
2018-08-16T01:23:05.740Z,3.90
2018-08-16T01:24:09.159Z,3.95
2018-08-16T01:25:13.653Z,4.15
2018-08-16T01:26:18.044Z,3.80
2018-08-16T01:27:21.448Z,4.40
2018-08-16T01:28:24.831Z,4.30
2018-08-16T01:29:28.215Z,4.33
2018-08-16T01:30:32.666Z,4.20
2018-08-16T01:31:36.254Z,4.47
2018-08-16T01:32:39.639Z,3.95
2018-08-16T01:33:43.027Z,4.37
2018-08-16T01:34:46.410Z,4.05
2018-08-16T01:35:50.983Z,4.37
2018-08-16T01:36:54.427Z,4.80
2018-08-16T01:37:57.821Z,5.15
2018-08-16T01:39:01.203Z,4.33
2018-08-16T01:40:06.736Z,4.78
2018-08-16T01:41:11.147Z,4.47
2018-08-16T01:42:14.602Z,4.28
2018-08-16T01:43:17.981Z,4.87
2018-08-16T01:44:21.440Z,4.47
2018-08-16T01:45:26.564Z,4.42
2018-08-16T01:46:30.148Z,4.35
2018-08-16T01:47:33.524Z,4.60
2018-08-16T01:48:36.915Z,5.10
2018-08-16T01:49:40.292Z,4.72
2018-08-16T01:50:44.767Z,4.62
2018-08-16T01:51:48.207Z,4.28
2018-08-16T01:52:51.594Z,4.65
2018-08-16T01:53:55.139Z,4.67
2018-08-16T01:54:58.531Z,4.62
2018-08-16T01:56:03.121Z,4.92
2018-08-16T01:57:06.654Z,4.95
2018-08-16T01:58:10.129Z,4.65
2018-08-16T01:59:13.503Z,4.50
2018-08-16T02:00:19.010Z,4.20
2018-08-16T02:01:23.200Z,4.90
2018-08-16T02:02:26.616Z,5.00
2018-08-16T02:03:30.319Z,5.15
2018-08-16T02:04:33.699Z,5.05
2018-08-16T02:05:38.231Z,5.17
2018-08-16T02:06:41.648Z,5.00
2018-08-16T02:07:45.044Z,4.85
2018-08-16T02:08:48.419Z,4.92
2018-08-16T02:09:51.795Z,5.10
2018-08-16T02:10:57.741Z,4.97
2018-08-16T02:12:01.143Z,5.08
2018-08-16T02:13:04.643Z,4.60
2018-08-16T02:14:08.587Z,4.85
2018-08-16T02:15:13.589Z,5.67
2018-08-16T02:16:18.112Z,4.40
2018-08-16T02:17:21.528Z,5.17
2018-08-16T02:18:24.935Z,4.85
2018-08-16T02:19:28.335Z,4.47
2018-08-16T02:20:32.803Z,5.28
2018-08-16T02:21:36.688Z,5.17
2018-08-16T02:22:40.384Z,4.72
2018-08-16T02:23:43.802Z,5.00
2018-08-16T02:24:47.179Z,4.60
2018-08-16T02:25:51.569Z,4.85
2018-08-16T02:26:54.987Z,4.80
2018-08-16T02:27:58.399Z,4.97
2018-08-16T02:29:02.148Z,4.90
2018-08-16T02:30:07.879Z,5.10
2018-08-16T02:31:12.422Z,4.72
2018-08-16T02:32:15.832Z,5.25
2018-08-16T02:33:19.205Z,4.78
2018-08-16T02:34:22.608Z,5.15
2018-08-16T02:35:27.159Z,5.55
2018-08-16T02:36:30.963Z,5.70
2018-08-16T02:37:34.412Z,5.45
2018-08-16T02:38:37.807Z,5.40
2018-08-16T02:39:41.207Z,5.30
2018-08-16T02:40:45.641Z,5.67
2018-08-16T02:41:49.056Z,5.35
2018-08-16T02:42:52.437Z,5.25
2018-08-16T02:43:55.814Z,5.65
2018-08-16T02:44:59.218Z,6.25
2018-08-16T02:46:03.600Z,5.30
2018-08-16T02:47:06.991Z,5.62
2018-08-16T02:48:10.459Z,5.28
2018-08-16T02:49:13.876Z,5.75
2018-08-16T02:50:18.675Z,6.22
2018-08-16T02:51:23.411Z,5.28
2018-08-16T02:52:26.837Z,5.47
2018-08-16T02:53:30.251Z,5.45
2018-08-16T02:54:33.752Z,5.42
2018-08-16T02:55:38.261Z,5.55
2018-08-16T02:56:41.667Z,5.33
2018-08-16T02:57:45.047Z,5.90
2018-08-16T02:58:48.463Z,5.12
2018-08-16T02:59:51.883Z,5.67
2018-08-16T03:00:57.251Z,5.55
2018-08-16T03:02:00.703Z,5.12
2018-08-16T03:03:04.114Z,4.80
2018-08-16T03:04:07.553Z,5.30
2018-08-16T03:05:12.623Z,5.22
2018-08-16T03:06:17.777Z,4.72
2018-08-16T03:07:21.167Z,5.78
2018-08-16T03:08:24.567Z,5.35
2018-08-16T03:09:27.948Z,5.08
2018-08-16T03:10:32.424Z,5.50
2018-08-16T03:11:35.847Z,5.20
2018-08-16T03:12:39.225Z,5.37
2018-08-16T03:13:42.647Z,5.80
2018-08-16T03:14:46.031Z,5.40
2018-08-16T03:15:50.484Z,5.72
2018-08-16T03:16:53.929Z,5.42
2018-08-16T03:17:57.311Z,5.25
2018-08-16T03:19:00.779Z,5.10
2018-08-16T03:20:05.169Z,4.90
2018-08-16T03:21:09.658Z,5.28
2018-08-16T03:22:13.103Z,4.92
2018-08-16T03:23:16.488Z,4.40
2018-08-16T03:24:19.879Z,4.65
2018-08-16T03:25:24.232Z,4.00
2018-08-16T03:26:28.560Z,4.53
2018-08-16T03:27:32.136Z,4.87
2018-08-16T03:28:35.511Z,5.00
2018-08-16T03:29:38.917Z,4.30
2018-08-16T03:30:43.602Z,4.47
2018-08-16T03:31:47.016Z,4.75
2018-08-16T03:32:50.604Z,4.30
2018-08-16T03:33:54.263Z,4.28
2018-08-16T03:34:57.643Z,4.37
2018-08-16T03:36:02.079Z,4.80
2018-08-16T03:37:05.475Z,4.47
2018-08-16T03:38:08.920Z,4.20
2018-08-16T03:39:12.331Z,4.72
2018-08-16T03:40:16.816Z,4.55
2018-08-16T03:41:21.255Z,4.00
2018-08-16T03:42:24.727Z,4.28
2018-08-16T03:43:28.127Z,4.45
2018-08-16T03:44:31.547Z,5.00
2018-08-16T03:45:36.043Z,4.58
2018-08-16T03:46:39.447Z,4.20
2018-08-16T03:47:42.823Z,4.42
2018-08-16T03:48:46.260Z,4.53
2018-08-16T03:49:49.650Z,4.70
2018-08-16T03:50:54.187Z,4.22
2018-08-16T03:51:57.572Z,4.80
2018-08-16T03:53:00.955Z,4.33
2018-08-16T03:54:04.364Z,4.28
2018-08-16T03:55:08.731Z,4.28
2018-08-16T03:56:13.251Z,4.03
2018-08-16T03:57:16.675Z,4.87
2018-08-16T03:58:20.056Z,4.00
2018-08-16T03:59:23.528Z,4.70
2018-08-16T04:00:27.953Z,4.47
2018-08-16T04:01:31.351Z,4.80
2018-08-16T04:02:34.751Z,4.80
2018-08-16T04:03:38.139Z,5.20
2018-08-16T04:04:41.563Z,4.55
2018-08-16T04:05:46.010Z,4.47
2018-08-16T04:06:49.407Z,4.70
2018-08-16T04:07:52.793Z,4.40
2018-08-16T04:08:56.179Z,4.83
2018-08-16T04:09:59.583Z,4.47
2018-08-16T04:11:04.042Z,4.30
2018-08-16T04:12:07.451Z,4.60
2018-08-16T04:13:11.111Z,4.70
2018-08-16T04:14:14.503Z,4.75
2018-08-16T04:15:18.995Z,4.30
2018-08-16T04:16:23.092Z,4.20
2018-08-16T04:17:31.820Z,4.35
2018-08-16T04:18:35.199Z,4.47
2018-08-16T04:19:38.794Z,4.47
2018-08-16T04:20:42.945Z,4.08
2018-08-16T04:21:46.372Z,4.33
2018-08-16T04:22:49.771Z,4.53
2018-08-16T04:23:53.262Z,4.55
2018-08-16T04:24:56.863Z,4.22
2018-08-16T04:26:01.268Z,4.50
2018-08-16T04:27:04.687Z,4.80
2018-08-16T04:28:08.128Z,4.15
2018-08-16T04:29:11.580Z,4.78
2018-08-16T04:30:16.025Z,4.90
2018-08-16T04:31:20.627Z,4.47
2018-08-16T04:32:24.064Z,4.60
2018-08-16T04:33:27.533Z,4.70
2018-08-16T04:34:30.940Z,4.53
2018-08-16T04:35:35.548Z,4.83
2018-08-16T04:36:38.807Z,4.50
2018-08-16T04:37:42.180Z,4.70
2018-08-16T04:38:45.640Z,4.83
2018-08-16T04:39:49.068Z,4.80
2018-08-16T04:40:53.533Z,4.67
2018-08-16T04:41:56.965Z,5.53
2018-08-16T04:43:00.325Z,4.90
2018-08-16T04:44:03.771Z,4.83
2018-08-16T04:45:08.758Z,4.75
2018-08-16T04:46:13.215Z,5.03
2018-08-16T04:47:16.631Z,5.08
2018-08-16T04:48:20.028Z,4.87
2018-08-16T04:49:23.471Z,5.08
2018-08-16T04:50:27.799Z,5.67
2018-08-16T04:51:31.204Z,4.78
2018-08-16T04:52:34.623Z,5.00
2018-08-16T04:53:37.995Z,5.33
2018-08-16T04:54:41.415Z,5.83
2018-08-16T04:55:45.792Z,6.17
2018-08-16T04:56:49.251Z,5.40
2018-08-16T04:57:52.592Z,5.90
2018-08-16T04:58:55.984Z,5.28
2018-08-16T04:59:59.415Z,5.20
2018-08-16T05:01:03.863Z,5.10
2018-08-16T05:02:07.273Z,5.30
2018-08-16T05:03:10.647Z,5.62
2018-08-16T05:04:14.029Z,5.67
2018-08-16T05:05:18.886Z,5.40
2018-08-16T05:06:23.105Z,5.05
2018-08-16T05:07:26.507Z,5.45
2018-08-16T05:08:29.887Z,5.28
2018-08-16T05:09:33.267Z,5.00
2018-08-16T05:10:37.689Z,5.20
2018-08-16T05:11:41.591Z,4.87
2018-08-16T05:12:44.971Z,5.00
2018-08-16T05:13:48.355Z,5.75
2018-08-16T05:14:51.839Z,5.55
2018-08-16T05:15:56.290Z,5.28
2018-08-16T05:16:59.692Z,6.28
2018-08-16T05:18:03.071Z,5.80
2018-08-16T05:19:06.828Z,5.22
2018-08-16T05:20:12.884Z,5.03
2018-08-16T05:21:17.291Z,5.92
2018-08-16T05:22:20.703Z,5.37
2018-08-16T05:23:24.090Z,5.92
2018-08-16T05:24:27.492Z,5.00
2018-08-16T05:25:31.988Z,5.55
2018-08-16T05:26:35.439Z,5.05
2018-08-16T05:27:38.819Z,5.70
2018-08-16T05:28:42.232Z,5.20
2018-08-16T05:29:45.691Z,4.95
2018-08-16T05:30:50.251Z,5.15
2018-08-16T05:31:53.682Z,5.45
2018-08-16T05:32:57.062Z,6.08
2018-08-16T05:34:00.467Z,5.53
2018-08-16T05:35:05.225Z,6.70
2018-08-16T05:36:10.309Z,6.70
2018-08-16T05:37:13.739Z,6.70
2018-08-16T05:38:17.179Z,7.35
2018-08-16T05:39:20.563Z,5.90
2018-08-16T05:40:25.460Z,5.62
2018-08-16T05:41:29.468Z,5.45
2018-08-16T05:42:32.899Z,6.05
2018-08-16T05:43:36.392Z,5.65
2018-08-16T05:44:39.752Z,6.00
2018-08-16T05:45:44.003Z,6.03
2018-08-16T05:46:47.389Z,5.95
2018-08-16T05:47:50.836Z,6.30
2018-08-16T05:48:54.215Z,6.33
2018-08-16T05:49:57.594Z,6.28
2018-08-16T05:51:02.069Z,6.05
2018-08-16T05:52:05.695Z,6.65
2018-08-16T05:53:09.187Z,6.20
2018-08-16T05:54:12.616Z,6.12
2018-08-16T05:55:17.223Z,5.78
2018-08-16T05:56:21.875Z,6.00
2018-08-16T05:57:25.287Z,5.70
2018-08-16T05:58:28.666Z,6.08
2018-08-16T05:59:32.043Z,7.58
2018-08-16T06:00:36.589Z,8.00
2018-08-16T06:01:39.992Z,6.42
2018-08-16T06:02:43.437Z,6.15
2018-08-16T06:03:46.819Z,6.25
2018-08-16T06:04:50.201Z,5.40
2018-08-16T06:05:54.707Z,6.35
2018-08-16T06:06:58.115Z,6.03
2018-08-16T06:08:01.570Z,6.40
2018-08-16T06:09:07.943Z,6.08
2018-08-16T06:10:12.845Z,6.80
2018-08-16T06:11:17.429Z,7.12
2018-08-16T06:12:20.821Z,6.65
2018-08-16T06:13:24.216Z,6.33
2018-08-16T06:14:27.639Z,6.25
2018-08-16T06:15:33.137Z,6.45
2018-08-16T06:16:36.601Z,6.55
2018-08-16T06:17:39.989Z,6.45
2018-08-16T06:18:43.395Z,6.45
2018-08-16T06:19:46.804Z,6.42
2018-08-16T06:20:51.083Z,6.10
2018-08-16T06:21:54.491Z,11.83
2018-08-16T06:22:57.906Z,8.48
2018-08-16T06:24:01.344Z,6.65
2018-08-16T06:25:07.661Z,6.78
2018-08-16T06:26:12.531Z,6.30
2018-08-16T06:27:15.931Z,6.35
2018-08-16T06:28:19.344Z,6.70
2018-08-16T06:29:22.743Z,6.47
2018-08-16T06:30:28.229Z,6.40
2018-08-16T06:31:31.870Z,7.12
2018-08-16T06:32:35.261Z,8.05
2018-08-16T06:33:38.664Z,6.78
2018-08-16T06:34:42.071Z,6.62
2018-08-16T06:35:46.489Z,6.40
2018-08-16T06:36:49.908Z,6.33
2018-08-16T06:37:53.294Z,6.97
2018-08-16T06:38:56.761Z,6.60
2018-08-16T06:40:00.135Z,6.90
2018-08-16T06:41:04.759Z,6.60
2018-08-16T06:42:08.192Z,6.45
2018-08-16T06:43:11.575Z,6.33
2018-08-16T06:44:14.960Z,6.00
2018-08-16T06:45:19.383Z,6.03
2018-08-16T06:46:23.639Z,6.28
2018-08-16T06:47:27.068Z,5.97
2018-08-16T06:48:30.439Z,7.08
2018-08-16T06:49:33.822Z,6.35
2018-08-16T06:50:38.442Z,6.58
2018-08-16T06:51:41.855Z,6.25
2018-08-16T06:52:45.357Z,6.03
2018-08-16T06:53:48.699Z,5.92
2018-08-16T06:54:52.083Z,5.90
2018-08-16T06:55:56.712Z,6.47
2018-08-16T06:57:00.116Z,6.62
2018-08-16T06:58:03.531Z,6.58
2018-08-16T06:59:06.927Z,6.55
2018-08-16T07:00:11.412Z,6.15
2018-08-16T07:01:15.906Z,6.17
2018-08-16T07:02:19.371Z,6.67
2018-08-16T07:03:22.758Z,6.60
2018-08-16T07:04:26.154Z,6.85
2018-08-16T07:05:30.700Z,6.78
2018-08-16T07:06:34.140Z,7.05
2018-08-16T07:07:37.755Z,6.83
2018-08-16T07:08:41.156Z,7.30
2018-08-16T07:09:44.766Z,6.95
2018-08-16T07:10:49.179Z,6.65
2018-08-16T07:11:52.621Z,6.97
2018-08-16T07:12:56.055Z,6.85
2018-08-16T07:13:59.535Z,7.67
2018-08-16T07:15:02.919Z,6.45
2018-08-16T07:16:07.435Z,6.22
2018-08-16T07:17:10.893Z,6.22
2018-08-16T07:18:14.319Z,6.35
2018-08-16T07:19:17.710Z,6.60
2018-08-16T07:20:23.068Z,6.95
2018-08-16T07:21:28.460Z,7.05
2018-08-16T07:22:31.898Z,6.67
2018-08-16T07:23:35.308Z,6.53
2018-08-16T07:24:38.756Z,6.75
2018-08-16T07:25:43.025Z,7.03
2018-08-16T07:26:46.468Z,7.08
2018-08-16T07:27:49.871Z,6.17
2018-08-16T07:28:53.555Z,6.25
2018-08-16T07:29:56.973Z,6.45
2018-08-16T07:31:01.597Z,7.08
2018-08-16T07:32:05.011Z,7.12
2018-08-16T07:33:08.411Z,6.65
2018-08-16T07:34:11.792Z,7.03
2018-08-16T07:35:16.366Z,6.45
2018-08-16T07:36:20.859Z,7.03
2018-08-16T07:37:24.267Z,6.53
2018-08-16T07:38:27.668Z,6.75
2018-08-16T07:39:37.796Z,6.67
2018-08-16T07:40:41.984Z,6.35
2018-08-16T07:41:45.379Z,7.17
2018-08-16T07:42:48.760Z,8.65
2018-08-16T07:43:52.168Z,7.12
2018-08-16T07:44:55.552Z,7.17
2018-08-16T07:46:00.098Z,6.90
2018-08-16T07:47:03.511Z,7.50
2018-08-16T07:48:06.903Z,7.78
2018-08-16T07:49:10.316Z,7.60
2018-08-16T07:50:14.728Z,7.03
2018-08-16T07:51:19.905Z,6.92
2018-08-16T07:52:23.414Z,7.53
2018-08-16T07:53:26.812Z,7.10
2018-08-16T07:54:30.403Z,7.03
2018-08-16T07:55:34.946Z,7.55
2018-08-16T07:56:38.591Z,7.55
2018-08-16T07:57:41.987Z,7.28
2018-08-16T07:58:45.368Z,7.58
2018-08-16T07:59:48.788Z,8.10
2018-08-16T08:00:53.808Z,7.20
2018-08-16T08:01:57.223Z,7.62
2018-08-16T08:03:00.613Z,6.83
2018-08-16T08:04:04.039Z,6.50
2018-08-16T08:05:08.708Z,7.08
2018-08-16T08:06:13.274Z,7.87
2018-08-16T08:07:16.668Z,7.78
2018-08-16T08:08:20.054Z,8.33
2018-08-16T08:09:23.469Z,8.03
2018-08-16T08:10:28.108Z,7.28
2018-08-16T08:11:31.729Z,7.20
2018-08-16T08:12:35.267Z,7.45
2018-08-16T08:13:38.655Z,7.17
2018-08-16T08:14:42.040Z,7.87
2018-08-16T08:15:46.630Z,7.37
2018-08-16T08:16:50.171Z,7.62
2018-08-16T08:17:53.690Z,7.37
2018-08-16T08:18:57.097Z,7.55
2018-08-16T08:20:00.496Z,8.70
2018-08-16T08:21:04.920Z,7.70
2018-08-16T08:22:08.335Z,8.13
2018-08-16T08:23:11.731Z,7.25
2018-08-16T08:24:15.119Z,7.60
2018-08-16T08:25:19.561Z,7.47
2018-08-16T08:26:23.894Z,7.47
2018-08-16T08:27:27.307Z,6.15
2018-08-16T08:28:30.708Z,7.22
2018-08-16T08:29:45.490Z,7.28
2018-08-16T08:30:49.849Z,7.28
2018-08-16T08:31:53.288Z,6.42
2018-08-16T08:32:56.682Z,6.58
2018-08-16T08:34:00.070Z,7.78
2018-08-16T08:35:03.584Z,6.78
2018-08-16T08:36:18.964Z,6.20
2018-08-16T08:37:33.675Z,6.28
2018-08-16T08:38:37.089Z,6.72
2018-08-16T08:39:40.467Z,8.88
2018-08-16T08:40:44.929Z,6.55
2018-08-16T08:41:48.339Z,7.12
2018-08-16T08:42:51.735Z,6.53
2018-08-16T08:44:06.408Z,6.50
2018-08-16T08:45:10.883Z,7.42
2018-08-16T08:46:16.419Z,7.20
2018-08-16T08:47:19.876Z,6.62
2018-08-16T08:48:23.295Z,6.50
2018-08-16T08:49:26.683Z,5.58
2018-08-16T08:50:31.193Z,5.60
2018-08-16T08:51:34.608Z,6.28
2018-08-16T08:52:38.035Z,6.65
2018-08-16T08:54:54.754Z,6.00
2018-08-16T08:56:09.981Z,6.78
2018-08-16T08:57:24.871Z,5.92
2018-08-16T08:58:40.035Z,5.95
2018-08-16T08:59:43.452Z,6.80
2018-08-16T09:00:48.060Z,5.67
2018-08-16T09:01:51.489Z,5.83
2018-08-16T09:02:54.920Z,8.05
2018-08-16T09:03:58.336Z,6.62
2018-08-16T09:05:01.751Z,8.18
2018-08-16T09:06:07.076Z,6.67
2018-08-16T09:07:12.118Z,7.12
2018-08-16T09:08:15.511Z,7.10
2018-08-16T09:09:18.938Z,6.58
2018-08-16T09:10:49.188Z,6.05
2018-08-16T09:12:03.804Z,5.85
2018-08-16T09:13:18.640Z,6.17
2018-08-16T09:14:33.275Z,5.30
2018-08-16T09:15:44.845Z,5.55
2018-08-16T09:16:48.248Z,6.10
2018-08-16T09:17:51.647Z,5.83
2018-08-16T09:18:55.511Z,5.80
2018-08-16T09:19:58.931Z,5.72
2018-08-16T09:21:04.281Z,6.00
2018-08-16T09:22:07.732Z,7.28
2018-08-16T09:23:11.123Z,7.22
2018-08-16T09:24:14.510Z,6.47
2018-08-16T09:25:19.291Z,6.47
2018-08-16T09:26:28.847Z,6.28
2018-08-16T09:27:32.239Z,6.12
2018-08-16T09:28:35.615Z,6.33
2018-08-16T09:30:48.706Z,6.42
2018-08-16T09:32:08.083Z,5.97
2018-08-16T09:33:22.943Z,5.42
2018-08-16T09:34:27.055Z,5.22
2018-08-16T09:35:31.481Z,5.10
2018-08-16T09:36:34.892Z,6.28
2018-08-16T09:37:38.280Z,6.70
2018-08-16T09:38:41.676Z,6.70
2018-08-16T09:39:45.241Z,7.80
2018-08-16T09:40:49.606Z,6.12
2018-08-16T09:41:53.036Z,5.85
2018-08-16T09:42:56.419Z,5.40
2018-08-16T09:43:59.800Z,5.67
2018-08-16T09:45:14.996Z,5.45
2018-08-16T09:47:06.427Z,5.20
2018-08-16T09:48:21.211Z,6.10
2018-08-16T09:49:24.694Z,7.55
2018-08-16T09:50:29.138Z,9.23
2018-08-16T09:51:32.553Z,7.60
2018-08-16T09:52:36.005Z,7.12
2018-08-16T09:53:39.430Z,5.65
2018-08-16T09:54:42.819Z,6.30
2018-08-16T09:55:47.198Z,5.67
2018-08-16T09:56:51.152Z,6.17
2018-08-16T09:57:54.551Z,6.50
2018-08-16T09:58:57.943Z,5.40
2018-08-16T10:00:01.319Z,5.80
2018-08-16T10:01:11.888Z,5.58
2018-08-16T10:02:16.849Z,6.00
2018-08-16T10:03:20.208Z,19.02
2018-08-16T10:04:23.603Z,10.50
2018-08-16T10:05:28.190Z,5.50
2018-08-16T10:06:31.704Z,6.25
2018-08-16T10:07:35.209Z,5.58
2018-08-16T10:08:38.615Z,5.70
2018-08-16T10:09:42.020Z,5.05
2018-08-16T10:10:46.450Z,5.20
2018-08-16T10:11:50.128Z,5.65
2018-08-16T10:12:53.532Z,5.53
2018-08-16T10:13:58.657Z,5.17
2018-08-16T10:15:02.045Z,6.30
2018-08-16T10:16:06.398Z,5.83
2018-08-16T10:17:09.789Z,6.15
2018-08-16T10:18:13.169Z,5.80
2018-08-16T10:19:16.630Z,6.20
2018-08-16T10:20:21.208Z,6.33
2018-08-16T10:21:25.704Z,5.75
2018-08-16T10:22:29.103Z,5.72
2018-08-16T10:23:32.503Z,6.62
2018-08-16T10:24:35.911Z,5.35
2018-08-16T10:25:40.471Z,6.10
2018-08-16T10:26:43.891Z,5.78
2018-08-16T10:27:47.299Z,9.03
2018-08-16T10:28:50.675Z,5.75
2018-08-16T10:29:54.071Z,5.70
2018-08-16T10:30:58.504Z,6.45
2018-08-16T10:32:01.940Z,7.90
2018-08-16T10:33:05.338Z,7.70
2018-08-16T10:34:08.727Z,6.62
2018-08-16T10:35:14.818Z,6.22
2018-08-16T10:36:19.348Z,5.72
2018-08-16T10:37:22.753Z,6.08
2018-08-16T10:38:26.200Z,5.92
2018-08-16T10:39:29.613Z,6.15
2018-08-16T10:40:34.561Z,6.58
2018-08-16T10:41:38.037Z,6.00
2018-08-16T10:42:41.421Z,5.60
2018-08-16T10:43:44.823Z,5.83
2018-08-16T10:44:48.205Z,5.83
2018-08-16T10:45:53.028Z,5.87
2018-08-16T10:46:56.456Z,5.60
2018-08-16T10:47:59.843Z,5.33
2018-08-16T10:49:03.251Z,5.83
2018-08-16T10:50:07.846Z,5.05
2018-08-16T10:51:13.216Z,6.58
2018-08-16T10:52:16.635Z,5.50
2018-08-16T10:53:20.066Z,5.58
2018-08-16T10:54:23.472Z,5.92
2018-08-16T10:55:27.947Z,6.12
2018-08-16T10:56:31.523Z,5.90
2018-08-16T10:57:34.903Z,5.37
2018-08-16T10:58:38.291Z,5.33
2018-08-16T10:59:41.675Z,5.70
2018-08-16T11:00:46.249Z,5.28
2018-08-16T11:01:49.714Z,5.12
2018-08-16T11:02:53.116Z,4.85
2018-08-16T11:03:56.495Z,5.42
2018-08-16T11:04:59.880Z,4.90
2018-08-16T11:06:04.037Z,5.53
2018-08-16T11:07:07.468Z,5.37
2018-08-16T11:08:10.972Z,5.42
2018-08-16T11:09:14.361Z,6.00
2018-08-16T11:10:18.757Z,6.12
2018-08-16T11:11:23.019Z,5.87
2018-08-16T11:12:26.443Z,5.92
2018-08-16T11:13:29.828Z,5.85
2018-08-16T11:14:33.208Z,5.37
2018-08-16T11:15:37.576Z,5.80
2018-08-16T11:16:40.966Z,5.47
2018-08-16T11:17:44.360Z,5.72
2018-08-16T11:18:47.780Z,5.87
2018-08-16T11:19:51.167Z,5.50
2018-08-16T11:20:55.636Z,6.10
2018-08-16T11:21:59.060Z,6.15
2018-08-16T11:23:02.627Z,5.62
2018-08-16T11:24:06.091Z,5.78
2018-08-16T11:25:10.472Z,5.70
2018-08-16T11:26:14.918Z,5.87
2018-08-16T11:27:18.349Z,6.20
2018-08-16T11:28:21.765Z,5.87
2018-08-16T11:29:25.209Z,6.12
2018-08-16T11:30:29.474Z,5.25
2018-08-16T11:31:32.883Z,5.90
2018-08-16T11:32:36.283Z,5.35
2018-08-16T11:33:39.759Z,5.75
2018-08-16T11:34:43.143Z,5.80
2018-08-16T11:35:47.723Z,5.58
2018-08-16T11:36:51.119Z,5.50
2018-08-16T11:37:54.556Z,6.05
2018-08-16T11:38:57.903Z,5.42
2018-08-16T11:40:01.351Z,5.05
2018-08-16T11:41:05.869Z,5.47
2018-08-16T11:42:09.283Z,6.20
2018-08-16T11:43:12.679Z,5.92
2018-08-16T11:44:16.123Z,6.25
2018-08-16T11:45:20.542Z,6.50
2018-08-16T11:46:24.754Z,6.37
2018-08-16T11:47:28.209Z,5.28
2018-08-16T11:48:31.823Z,5.12
2018-08-16T11:49:35.391Z,5.33
2018-08-16T11:50:39.930Z,5.80
2018-08-16T11:51:43.347Z,5.37
2018-08-16T11:52:46.744Z,5.05
2018-08-16T11:53:50.140Z,5.70
2018-08-16T11:54:53.575Z,5.35
2018-08-16T11:55:58.263Z,5.67
2018-08-16T11:57:01.668Z,5.40
2018-08-16T11:58:05.247Z,5.30
2018-08-16T11:59:08.635Z,5.58
2018-08-16T12:00:13.310Z,5.22
2018-08-16T12:01:18.009Z,6.00
2018-08-16T12:02:21.427Z,5.85
2018-08-16T12:03:24.945Z,5.40
2018-08-16T12:04:28.360Z,5.85
2018-08-16T12:05:34.183Z,5.58
2018-08-16T12:06:37.584Z,5.53
2018-08-16T12:07:40.963Z,5.20
2018-08-16T12:08:44.351Z,5.03
2018-08-16T12:09:47.759Z,5.20
2018-08-16T12:10:52.799Z,5.58
2018-08-16T12:11:56.259Z,5.28
2018-08-16T12:12:59.674Z,5.80
2018-08-16T12:14:03.056Z,5.28
2018-08-16T12:15:09.002Z,5.15
2018-08-16T12:16:13.664Z,5.25
2018-08-16T12:17:17.090Z,5.30
2018-08-16T12:18:20.463Z,5.12
2018-08-16T12:19:23.849Z,5.17
2018-08-16T12:20:28.270Z,5.03
2018-08-16T12:21:31.695Z,5.15
2018-08-16T12:22:35.071Z,5.28
2018-08-16T12:23:38.463Z,5.20
2018-08-16T12:24:41.843Z,5.35
2018-08-16T12:25:52.967Z,5.15
2018-08-16T12:26:56.388Z,5.78
2018-08-16T12:27:59.763Z,5.28
2018-08-16T12:29:03.230Z,5.28
2018-08-16T12:30:08.852Z,6.05
2018-08-16T12:31:13.291Z,5.20
2018-08-16T12:32:16.739Z,5.00
2018-08-16T12:33:20.128Z,5.40
2018-08-16T12:34:23.511Z,4.97
2018-08-16T12:35:28.839Z,5.67
2018-08-16T12:36:32.283Z,7.05
2018-08-16T12:37:35.907Z,6.30
2018-08-16T12:38:39.260Z,5.22
2018-08-16T12:39:42.636Z,6.05
2018-08-16T12:40:50.106Z,5.55
2018-08-16T12:41:52.362Z,5.55
2018-08-16T12:42:53.883Z,5.30
2018-08-16T12:43:57.300Z,5.25
2018-08-16T12:45:00.693Z,5.40
2018-08-16T12:46:05.206Z,5.33
2018-08-16T12:47:08.636Z,4.90
2018-08-16T12:48:12.057Z,4.97
2018-08-16T12:49:15.453Z,5.37
2018-08-16T12:50:19.890Z,4.80
2018-08-16T12:51:23.939Z,5.72
2018-08-16T12:52:27.352Z,4.33
2018-08-16T12:53:30.797Z,4.90
2018-08-16T12:54:34.253Z,5.15
2018-08-16T12:55:38.749Z,5.17
2018-08-16T12:56:42.208Z,5.20
2018-08-16T12:57:45.639Z,5.25
2018-08-16T12:58:49.036Z,4.35
2018-08-16T12:59:52.436Z,4.47
2018-08-16T13:00:56.993Z,4.53
2018-08-16T13:02:00.420Z,5.03
2018-08-16T13:03:03.775Z,4.60
2018-08-16T13:04:07.194Z,4.53
2018-08-16T13:05:11.672Z,6.03
2018-08-16T13:06:16.091Z,5.13
2018-08-16T13:07:19.500Z,5.30
2018-08-16T13:08:22.953Z,4.62
2018-08-16T13:09:26.359Z,5.58
2018-08-16T13:10:30.856Z,4.30
2018-08-16T13:11:34.255Z,4.58
2018-08-16T13:12:37.645Z,4.15
2018-08-16T13:13:41.032Z,5.90
2018-08-16T13:14:44.431Z,5.75
2018-08-16T13:15:49.227Z,4.45
2018-08-16T13:16:52.649Z,4.42
2018-08-16T13:17:56.030Z,5.15
2018-08-16T13:18:59.411Z,4.62
2018-08-16T13:20:03.318Z,4.67
2018-08-16T13:21:08.053Z,4.62
2018-08-16T13:22:11.464Z,5.00
2018-08-16T13:23:14.847Z,4.83
2018-08-16T13:24:18.244Z,4.67
2018-08-16T13:25:22.745Z,4.60
2018-08-16T13:26:27.217Z,4.25
2018-08-16T13:27:30.621Z,5.03
2018-08-16T13:28:34.011Z,4.70
2018-08-16T13:29:37.391Z,4.55
2018-08-16T13:30:41.868Z,4.17
2018-08-16T13:31:45.268Z,4.83
2018-08-16T13:32:48.649Z,4.42
2018-08-16T13:33:52.383Z,5.58
2018-08-16T13:34:55.760Z,4.43
2018-08-16T13:36:00.228Z,6.40
2018-08-16T13:37:03.675Z,5.72
2018-08-16T13:38:07.143Z,5.87
2018-08-16T13:39:12.584Z,5.17
2018-08-16T13:40:17.023Z,4.55
2018-08-16T13:41:21.618Z,4.50
2018-08-16T13:42:25.080Z,4.50
2018-08-16T13:43:28.390Z,4.80
2018-08-16T13:44:31.785Z,4.10
2018-08-16T13:45:36.307Z,4.63
2018-08-16T13:46:39.719Z,4.62
2018-08-16T13:47:43.097Z,4.17
2018-08-16T13:48:46.561Z,4.28
2018-08-16T13:49:49.869Z,4.40
2018-08-16T13:50:54.891Z,4.23
2018-08-16T13:51:58.340Z,5.30
2018-08-16T13:53:01.723Z,4.30
2018-08-16T13:54:05.508Z,4.83
2018-08-16T13:55:10.462Z,4.50
2018-08-16T13:56:14.865Z,4.83
2018-08-16T13:57:18.307Z,5.07
2018-08-16T13:58:21.707Z,5.20
2018-08-16T13:59:25.091Z,4.67
2018-08-16T14:00:29.722Z,5.10
2018-08-16T14:01:33.125Z,4.80
2018-08-16T14:02:36.527Z,4.10
2018-08-16T14:03:39.897Z,4.10
2018-08-16T14:04:43.271Z,4.30
2018-08-16T14:05:47.705Z,4.10
2018-08-16T14:06:51.111Z,4.17
2018-08-16T14:07:54.512Z,4.33
2018-08-16T14:08:57.887Z,4.20
2018-08-16T14:10:01.275Z,4.40
2018-08-16T14:11:05.911Z,4.33
2018-08-16T14:12:09.326Z,3.90
2018-08-16T14:13:12.763Z,4.23
2018-08-16T14:14:16.116Z,4.60
2018-08-16T14:15:20.526Z,4.57